createdAt,value
2023-04-25T00:00:11.856Z,65.90
2023-04-25T00:05:16.302Z,65.10
2023-04-25T00:10:18.243Z,62.10
2023-04-25T00:15:20.086Z,62.90
2023-04-25T00:20:22.966Z,62.90
2023-04-25T00:25:24.896Z,62.10
2023-04-25T00:30:26.781Z,62.60
2023-04-25T00:35:28.581Z,62.30
2023-04-25T00:40:30.487Z,64.00
2023-04-25T00:45:32.292Z,64.00
2023-04-25T00:50:37.991Z,63.30
2023-04-25T00:55:40.059Z,63.90
2023-04-25T01:00:42.974Z,63.00
2023-04-25T01:05:45.195Z,67.20
2023-04-25T01:10:47.005Z,69.70
2023-04-25T01:15:49.255Z,68.40
2023-04-25T01:20:53.407Z,71.80
2023-04-25T01:25:55.373Z,69.30
2023-04-25T01:30:57.933Z,67.20
2023-04-25T01:35:59.714Z,68.60
2023-04-25T01:41:02.698Z,67.50
2023-04-25T01:46:05.000Z,67.70
2023-04-25T01:51:07.012Z,63.60
2023-04-25T01:56:08.912Z,61.60
2023-04-25T02:01:10.835Z,62.60
2023-04-25T02:06:12.733Z,61.60
2023-04-25T02:11:14.523Z,63.30
2023-04-25T02:16:16.409Z,61.90
2023-04-25T02:21:18.174Z,62.70
2023-04-25T02:26:19.958Z,62.60
2023-04-25T02:31:21.806Z,63.40
2023-04-25T02:36:23.784Z,62.50
2023-04-25T02:41:25.609Z,63.80
2023-04-25T02:46:38.526Z,65.20
2023-04-25T02:51:41.420Z,63.70
2023-04-25T02:56:43.195Z,64.70
2023-04-25T03:01:44.973Z,66.50
2023-04-25T03:06:46.938Z,67.60
2023-04-25T03:11:48.666Z,66.70
2023-04-25T03:16:50.471Z,66.30
2023-04-25T03:21:52.257Z,66.40
2023-04-25T03:26:54.038Z,63.90
2023-04-25T03:31:55.841Z,64.10
2023-04-25T03:36:57.611Z,62.70
2023-04-25T03:41:59.656Z,62.10
2023-04-25T03:47:01.518Z,60.90
2023-04-25T03:52:03.871Z,60.20
2023-04-25T03:57:06.071Z,59.30
2023-04-25T04:02:07.880Z,59.60
2023-04-25T04:07:11.495Z,59.60
2023-04-25T04:12:13.304Z,59.40
2023-04-25T04:17:15.094Z,59.80
2023-04-25T04:22:16.875Z,59.70
2023-04-25T04:27:20.380Z,59.00
2023-04-25T04:32:24.356Z,58.60
2023-04-25T04:37:26.142Z,58.80
2023-04-25T04:42:29.111Z,58.30
2023-04-25T04:47:35.128Z,59.30
2023-04-25T04:52:38.211Z,58.30
2023-04-25T04:57:40.537Z,57.40
2023-04-25T05:02:42.482Z,55.70
2023-04-25T05:07:44.528Z,55.50
2023-04-25T05:12:46.762Z,54.10
2023-04-25T05:17:48.530Z,56.10
2023-04-25T05:22:50.465Z,54.90
2023-04-25T05:27:53.515Z,56.20
2023-04-25T05:32:55.465Z,54.50
2023-04-25T05:37:57.205Z,55.80
2023-04-25T05:42:59.038Z,53.60
2023-04-25T05:48:00.818Z,54.30
2023-04-25T05:53:03.574Z,53.90
2023-04-25T05:58:08.138Z,54.00
2023-04-25T06:03:11.023Z,54.00
2023-04-25T06:08:13.356Z,54.10
2023-04-25T06:13:15.183Z,53.00
2023-04-25T06:18:16.905Z,53.30
2023-04-25T06:23:18.666Z,51.40
2023-04-25T06:28:20.555Z,51.30
2023-04-25T06:33:23.176Z,50.20
2023-04-25T06:38:25.214Z,49.40
2023-04-25T06:43:27.129Z,47.00
2023-04-25T06:48:29.128Z,45.60
2023-04-25T06:53:31.181Z,43.30
2023-04-25T06:58:32.992Z,45.10
2023-04-25T07:03:34.970Z,46.20
2023-04-25T07:08:37.083Z,47.80
2023-04-25T07:13:38.901Z,44.00
2023-04-25T07:18:40.803Z,45.10
2023-04-25T07:23:42.628Z,46.80
2023-04-25T07:28:44.452Z,46.80
2023-04-25T07:33:46.943Z,42.50
2023-04-25T07:38:48.858Z,31.80
2023-04-25T07:43:50.896Z,29.50
2023-04-25T07:48:53.084Z,27.10
2023-04-25T07:53:55.188Z,28.00
2023-04-25T07:58:56.922Z,30.30
2023-04-25T08:03:59.001Z,28.50
2023-04-25T08:09:01.620Z,28.10
2023-04-25T08:14:03.425Z,27.20
2023-04-25T08:19:06.008Z,28.30
2023-04-25T08:24:07.865Z,28.40
2023-04-25T08:29:09.727Z,27.50
2023-04-25T08:34:12.250Z,28.20
2023-04-25T08:39:14.415Z,27.40
2023-04-25T08:44:17.268Z,28.10
2023-04-25T08:49:20.184Z,25.10
2023-04-25T08:54:35.823Z,26.40
2023-04-25T08:59:40.422Z,25.60
2023-04-25T09:04:46.352Z,26.60
2023-04-25T09:09:48.822Z,26.20
2023-04-25T09:15:12.366Z,27.10
2023-04-25T09:20:14.932Z,26.20
2023-04-25T09:25:18.093Z,25.10
2023-04-25T09:30:29.699Z,22.80
2023-04-25T09:35:40.001Z,23.70
2023-04-25T09:40:47.498Z,25.00
2023-04-25T09:45:50.936Z,24.70
2023-04-25T09:51:11.824Z,27.90
2023-04-25T09:56:14.414Z,28.90
2023-04-25T10:01:18.069Z,28.90
2023-04-25T10:06:22.511Z,27.10
2023-04-25T10:11:27.407Z,28.70
2023-04-25T10:16:30.003Z,29.50
2023-04-25T10:21:32.626Z,28.80
2023-04-25T10:26:34.565Z,31.40
2023-04-25T10:31:48.767Z,31.80
2023-04-25T10:36:54.235Z,32.40
2023-04-25T10:42:03.493Z,30.90
2023-04-25T10:47:08.588Z,31.50
2023-04-25T10:52:27.633Z,31.50
2023-04-25T10:57:43.022Z,30.50
2023-04-25T11:02:48.215Z,31.30
2023-04-25T11:13:22.698Z,32.00
2023-04-25T11:14:38.047Z,31.80
2023-04-25T11:18:28.319Z,30.00
2023-04-25T11:23:31.453Z,31.30
2023-04-25T11:28:33.272Z,32.80
2023-04-25T11:33:34.985Z,30.60
2023-04-25T11:38:36.875Z,29.80
2023-04-25T11:43:39.318Z,30.90
2023-04-25T11:48:43.267Z,31.80
2023-04-25T11:53:47.945Z,33.30
2023-04-25T11:59:17.703Z,32.20
2023-04-25T12:04:24.822Z,31.60
2023-04-25T12:09:34.265Z,31.40
2023-04-25T12:14:37.090Z,31.30
2023-04-25T12:19:42.156Z,31.60
2023-04-25T12:24:46.592Z,33.20
2023-04-25T12:29:56.844Z,34.20
2023-04-25T12:34:58.829Z,32.70
2023-04-25T12:40:00.835Z,33.50
2023-04-25T12:45:02.566Z,33.60
2023-04-25T12:50:04.455Z,31.90
2023-04-25T12:55:06.789Z,30.00
2023-04-25T13:00:11.282Z,29.70
2023-04-25T13:05:13.675Z,30.10
2023-04-25T13:10:15.545Z,30.70
2023-04-25T13:15:17.569Z,31.90
2023-04-25T13:20:19.944Z,29.00
2023-04-25T13:25:22.943Z,29.60
2023-04-25T13:30:24.689Z,31.10
2023-04-25T13:35:26.875Z,33.80
2023-04-25T13:40:28.877Z,35.80
2023-04-25T13:45:33.277Z,36.90
2023-04-25T13:50:36.232Z,36.50
2023-04-25T13:55:38.379Z,37.40
2023-04-25T14:00:41.258Z,37.20
2023-04-25T14:05:43.076Z,35.50
2023-04-25T14:10:44.829Z,33.80
2023-04-25T14:15:47.112Z,31.00
2023-04-25T14:20:49.100Z,36.30
2023-04-25T14:25:51.057Z,37.90
2023-04-25T14:30:52.956Z,39.30
2023-04-25T14:35:55.493Z,38.60
2023-04-25T14:40:57.366Z,40.10
2023-04-25T14:45:59.288Z,42.30
2023-04-25T14:51:01.645Z,43.70
2023-04-25T14:56:03.690Z,46.00
2023-04-25T15:01:05.652Z,47.70
2023-04-25T15:06:07.712Z,49.60
2023-04-25T15:11:09.487Z,50.60
2023-04-25T15:16:12.769Z,51.30
2023-04-25T15:21:14.850Z,51.30
2023-04-25T15:26:17.034Z,51.70
2023-04-25T15:31:18.932Z,51.30
2023-04-25T15:36:22.433Z,51.30
2023-04-25T15:41:26.289Z,50.90
2023-04-25T15:46:28.570Z,50.90
2023-04-25T15:51:30.683Z,51.60
2023-04-25T15:56:32.558Z,50.80
2023-04-25T16:01:34.868Z,50.00
2023-04-25T16:06:36.786Z,50.60
2023-04-25T16:11:38.535Z,50.40
2023-04-25T16:16:40.411Z,51.40
2023-04-25T16:21:43.024Z,52.00
2023-04-25T16:26:45.477Z,52.50
2023-04-25T16:31:47.632Z,52.70
2023-04-25T16:36:50.052Z,53.10
2023-04-25T16:41:52.092Z,53.10
2023-04-25T16:46:53.859Z,53.50
2023-04-25T16:51:55.746Z,53.60
2023-04-25T16:56:58.306Z,54.50
2023-04-25T17:02:00.311Z,54.50
2023-04-25T17:07:02.248Z,54.90
2023-04-25T17:12:04.946Z,55.50
2023-04-25T17:17:07.192Z,55.50
2023-04-25T17:22:09.286Z,55.40
2023-04-25T17:27:11.723Z,55.60
2023-04-25T17:32:16.258Z,56.70
2023-04-25T17:37:19.714Z,56.40
2023-04-25T17:42:21.506Z,56.30
2023-04-25T17:47:23.933Z,55.70
2023-04-25T17:52:26.353Z,54.90
2023-04-25T17:57:28.191Z,54.30
2023-04-25T18:02:29.957Z,53.10
2023-04-25T18:07:31.870Z,53.60
2023-04-25T18:12:34.051Z,53.90
2023-04-25T18:17:41.976Z,57.30
2023-04-25T18:22:45.363Z,60.30
2023-04-25T18:27:47.404Z,72.40
2023-04-25T18:32:49.587Z,90.10
2023-04-25T18:37:51.622Z,96.70
2023-04-25T18:42:53.354Z,99.00
2023-04-25T18:47:55.315Z,99.90
2023-04-25T18:52:57.062Z,97.90
2023-04-25T18:57:58.817Z,98.00
2023-04-25T19:03:03.645Z,99.90
2023-04-25T19:08:05.731Z,99.00
2023-04-25T19:13:07.658Z,99.00
2023-04-25T19:18:09.637Z,98.50
2023-04-25T19:23:11.513Z,99.20
2023-04-25T19:28:13.911Z,99.90
2023-04-25T19:33:15.753Z,99.90
2023-04-25T19:38:17.723Z,99.90
2023-04-25T19:43:19.717Z,99.90
2023-04-25T19:48:21.642Z,99.60
2023-04-25T19:53:23.505Z,99.90
2023-04-25T19:58:26.063Z,99.90
2023-04-25T20:03:28.043Z,99.90
2023-04-25T20:08:29.957Z,99.90
2023-04-25T20:13:31.975Z,99.90
2023-04-25T20:18:33.819Z,99.90
2023-04-25T20:23:35.589Z,99.90
2023-04-25T20:28:37.551Z,99.90
2023-04-25T20:33:39.441Z,99.90
2023-04-25T20:38:41.260Z,99.90
2023-04-25T20:43:43.251Z,99.90
2023-04-25T20:48:45.089Z,99.90
2023-04-25T20:53:46.984Z,99.90
2023-04-25T20:58:48.835Z,99.90
2023-04-25T21:03:54.123Z,99.90
2023-04-25T21:08:56.132Z,99.90
2023-04-25T21:13:57.938Z,99.90
2023-04-25T21:19:02.099Z,99.90
2023-04-25T21:24:05.843Z,99.90
2023-04-25T21:29:07.768Z,99.90
2023-04-25T21:34:09.521Z,99.90
2023-04-25T21:39:12.854Z,99.90
2023-04-25T21:44:15.723Z,99.90
2023-04-25T21:49:17.517Z,99.90
2023-04-25T21:54:19.238Z,99.90
2023-04-25T21:59:23.988Z,99.90
2023-04-25T22:04:26.062Z,99.90
2023-04-25T22:09:27.925Z,99.90
2023-04-25T22:14:32.361Z,99.90
2023-04-25T22:19:34.162Z,99.90
2023-04-25T22:24:36.057Z,99.90
2023-04-25T22:29:37.753Z,99.90
2023-04-25T22:34:39.626Z,99.90
2023-04-25T22:39:41.315Z,99.90
2023-04-25T22:44:43.015Z,99.90
2023-04-25T22:49:45.543Z,99.90
2023-04-25T22:54:47.387Z,99.90
2023-04-25T22:59:49.128Z,99.90
2023-04-25T23:04:53.166Z,99.90
2023-04-25T23:09:55.096Z,99.90
2023-04-25T23:14:57.302Z,99.90
2023-04-25T23:19:59.276Z,99.90
2023-04-25T23:25:01.051Z,99.90
2023-04-25T23:30:02.952Z,99.90
2023-04-25T23:35:05.973Z,99.90
2023-04-25T23:40:10.062Z,99.90
2023-04-25T23:45:12.583Z,99.90
2023-04-25T23:50:14.342Z,99.90
2023-04-25T23:55:16.540Z,99.90
